sensor_id;sensor_type;location;lat;lon;timestamp;P1;durP1;ratioP1;P2;durP2;ratioP2
17414;SDS011;8825;48.086;16.426;2023-08-01T00:00:56;3.20;;;2.90;;
17414;SDS011;8825;48.086;16.426;2023-08-01T00:03:23;2.50;;;2.30;;
17414;SDS011;8825;48.086;16.426;2023-08-01T00:05:51;3.37;;;3.07;;
17414;SDS011;8825;48.086;16.426;2023-08-01T00:08:20;3.17;;;2.87;;
17414;SDS011;8825;48.086;16.426;2023-08-01T00:10:48;4.20;;;2.97;;
17414;SDS011;8825;48.086;16.426;2023-08-01T00:13:15;3.00;;;2.80;;
17414;SDS011;8825;48.086;16.426;2023-08-01T00:15:43;3.40;;;3.10;;
17414;SDS011;8825;48.086;16.426;2023-08-01T00:18:10;2.97;;;2.73;;
17414;SDS011;8825;48.086;16.426;2023-08-01T00:20:38;4.13;;;3.00;;
17414;SDS011;8825;48.086;16.426;2023-08-01T00:23:05;2.90;;;2.70;;
17414;SDS011;8825;48.086;16.426;2023-08-01T00:25:33;3.87;;;3.07;;
17414;SDS011;8825;48.086;16.426;2023-08-01T00:28:00;4.20;;;3.10;;
17414;SDS011;8825;48.086;16.426;2023-08-01T00:30:28;3.30;;;3.00;;
17414;SDS011;8825;48.086;16.426;2023-08-01T00:32:55;4.47;;;2.70;;
17414;SDS011;8825;48.086;16.426;2023-08-01T00:35:23;3.57;;;2.73;;
17414;SDS011;8825;48.086;16.426;2023-08-01T00:37:50;3.80;;;3.10;;
17414;SDS011;8825;48.086;16.426;2023-08-01T00:40:18;2.93;;;2.63;;
17414;SDS011;8825;48.086;16.426;2023-08-01T00:42:45;3.37;;;2.73;;
17414;SDS011;8825;48.086;16.426;2023-08-01T00:45:14;3.30;;;3.00;;
17414;SDS011;8825;48.086;16.426;2023-08-01T00:47:42;3.00;;;2.80;;
17414;SDS011;8825;48.086;16.426;2023-08-01T00:50:09;3.30;;;3.00;;
17414;SDS011;8825;48.086;16.426;2023-08-01T00:52:37;2.70;;;2.50;;
17414;SDS011;8825;48.086;16.426;2023-08-01T00:55:05;3.10;;;2.80;;
17414;SDS011;8825;48.086;16.426;2023-08-01T00:57:34;3.30;;;3.03;;
17414;SDS011;8825;48.086;16.426;2023-08-01T01:02:48;3.20;;;2.90;;
17414;SDS011;8825;48.086;16.426;2023-08-01T01:05:16;4.03;;;3.00;;
17414;SDS011;8825;48.086;16.426;2023-08-01T01:07:43;3.73;;;3.37;;
17414;SDS011;8825;48.086;16.426;2023-08-01T01:10:11;3.70;;;3.07;;
17414;SDS011;8825;48.086;16.426;2023-08-01T01:12:38;3.20;;;2.90;;
17414;SDS011;8825;48.086;16.426;2023-08-01T01:15:06;2.80;;;2.60;;
17414;SDS011;8825;48.086;16.426;2023-08-01T01:17:34;3.10;;;2.80;;
17414;SDS011;8825;48.086;16.426;2023-08-01T01:20:02;2.80;;;2.60;;
17414;SDS011;8825;48.086;16.426;2023-08-01T01:22:29;4.03;;;3.10;;
17414;SDS011;8825;48.086;16.426;2023-08-01T01:24:58;3.03;;;2.73;;
17414;SDS011;8825;48.086;16.426;2023-08-01T01:27:27;3.30;;;2.90;;
17414;SDS011;8825;48.086;16.426;2023-08-01T01:29:56;3.03;;;2.73;;
17414;SDS011;8825;48.086;16.426;2023-08-01T01:32:25;3.07;;;2.77;;
17414;SDS011;8825;48.086;16.426;2023-08-01T01:34:53;3.30;;;3.00;;
17414;SDS011;8825;48.086;16.426;2023-08-01T01:37:20;3.27;;;3.07;;
17414;SDS011;8825;48.086;16.426;2023-08-01T01:39:48;3.20;;;2.90;;
17414;SDS011;8825;48.086;16.426;2023-08-01T01:42:15;4.73;;;3.70;;
17414;SDS011;8825;48.086;16.426;2023-08-01T01:44:43;3.83;;;2.97;;
17414;SDS011;8825;48.086;16.426;2023-08-01T01:47:10;4.13;;;3.30;;
17414;SDS011;8825;48.086;16.426;2023-08-01T01:49:38;3.40;;;3.17;;
17414;SDS011;8825;48.086;16.426;2023-08-01T01:52:05;3.17;;;2.97;;
17414;SDS011;8825;48.086;16.426;2023-08-01T01:54:33;4.23;;;3.23;;
17414;SDS011;8825;48.086;16.426;2023-08-01T01:57:01;3.70;;;3.40;;
17414;SDS011;8825;48.086;16.426;2023-08-01T01:59:28;3.60;;;3.30;;
17414;SDS011;8825;48.086;16.426;2023-08-01T02:01:56;3.40;;;3.07;;
17414;SDS011;8825;48.086;16.426;2023-08-01T02:04:23;3.40;;;3.10;;
17414;SDS011;8825;48.086;16.426;2023-08-01T02:06:51;3.97;;;3.20;;
17414;SDS011;8825;48.086;16.426;2023-08-01T02:09:20;3.80;;;3.40;;
17414;SDS011;8825;48.086;16.426;2023-08-01T02:11:48;4.83;;;3.60;;
17414;SDS011;8825;48.086;16.426;2023-08-01T02:14:15;3.97;;;3.67;;
17414;SDS011;8825;48.086;16.426;2023-08-01T02:16:43;3.60;;;3.17;;
17414;SDS011;8825;48.086;16.426;2023-08-01T02:19:10;3.70;;;3.40;;
17414;SDS011;8825;48.086;16.426;2023-08-01T02:21:38;3.63;;;3.33;;
17414;SDS011;8825;48.086;16.426;2023-08-01T02:24:05;3.67;;;3.37;;
17414;SDS011;8825;48.086;16.426;2023-08-01T02:26:33;4.20;;;3.80;;
17414;SDS011;8825;48.086;16.426;2023-08-01T02:29:00;6.37;;;4.10;;
17414;SDS011;8825;48.086;16.426;2023-08-01T02:31:28;3.70;;;3.40;;
17414;SDS011;8825;48.086;16.426;2023-08-01T02:33:55;3.60;;;3.30;;
17414;SDS011;8825;48.086;16.426;2023-08-01T02:36:22;3.33;;;3.10;;
17414;SDS011;8825;48.086;16.426;2023-08-01T02:38:50;3.50;;;3.20;;
17414;SDS011;8825;48.086;16.426;2023-08-01T02:41:18;3.17;;;2.93;;
17414;SDS011;8825;48.086;16.426;2023-08-01T02:43:45;3.37;;;3.00;;
17414;SDS011;8825;48.086;16.426;2023-08-01T02:46:12;3.50;;;3.20;;
17414;SDS011;8825;48.086;16.426;2023-08-01T02:48:40;3.60;;;3.10;;
17414;SDS011;8825;48.086;16.426;2023-08-01T02:51:08;3.53;;;3.23;;
17414;SDS011;8825;48.086;16.426;2023-08-01T02:53:36;3.50;;;3.20;;
17414;SDS011;8825;48.086;16.426;2023-08-01T02:56:05;3.50;;;3.20;;
17414;SDS011;8825;48.086;16.426;2023-08-01T02:58:34;3.03;;;2.80;;
17414;SDS011;8825;48.086;16.426;2023-08-01T03:01:08;3.87;;;3.57;;
17414;SDS011;8825;48.086;16.426;2023-08-01T03:03:36;3.70;;;3.40;;
17414;SDS011;8825;48.086;16.426;2023-08-01T03:06:04;3.40;;;3.10;;
17414;SDS011;8825;48.086;16.426;2023-08-01T03:08:31;3.97;;;3.67;;
17414;SDS011;8825;48.086;16.426;2023-08-01T03:10:59;3.30;;;3.00;;
17414;SDS011;8825;48.086;16.426;2023-08-01T03:13:27;3.97;;;3.57;;
17414;SDS011;8825;48.086;16.426;2023-08-01T03:15:55;4.50;;;3.47;;
17414;SDS011;8825;48.086;16.426;2023-08-01T03:18:22;3.43;;;3.10;;
17414;SDS011;8825;48.086;16.426;2023-08-01T03:20:50;3.43;;;3.13;;
17414;SDS011;8825;48.086;16.426;2023-08-01T03:23:17;3.73;;;3.40;;
17414;SDS011;8825;48.086;16.426;2023-08-01T03:25:45;4.23;;;3.50;;
17414;SDS011;8825;48.086;16.426;2023-08-01T03:28:12;4.10;;;3.70;;
17414;SDS011;8825;48.086;16.426;2023-08-01T03:30:40;4.23;;;3.83;;
17414;SDS011;8825;48.086;16.426;2023-08-01T03:33:07;4.27;;;3.87;;
17414;SDS011;8825;48.086;16.426;2023-08-01T03:35:35;4.17;;;3.47;;
17414;SDS011;8825;48.086;16.426;2023-08-01T03:38:02;4.00;;;3.57;;
17414;SDS011;8825;48.086;16.426;2023-08-01T03:40:30;3.63;;;3.33;;
17414;SDS011;8825;48.086;16.426;2023-08-01T03:42:58;3.97;;;3.43;;
17414;SDS011;8825;48.086;16.426;2023-08-01T03:45:25;3.70;;;3.40;;
17414;SDS011;8825;48.086;16.426;2023-08-01T03:47:52;3.87;;;3.57;;
17414;SDS011;8825;48.086;16.426;2023-08-01T03:50:20;4.23;;;3.80;;
17414;SDS011;8825;48.086;16.426;2023-08-01T03:52:47;4.20;;;3.77;;
17414;SDS011;8825;48.086;16.426;2023-08-01T03:55:15;4.03;;;3.73;;
17414;SDS011;8825;48.086;16.426;2023-08-01T03:57:43;4.20;;;3.90;;
17414;SDS011;8825;48.086;16.426;2023-08-01T04:00:10;3.80;;;3.50;;
17414;SDS011;8825;48.086;16.426;2023-08-01T04:02:43;4.87;;;4.13;;
17414;SDS011;8825;48.086;16.426;2023-08-01T04:05:11;3.60;;;3.30;;
17414;SDS011;8825;48.086;16.426;2023-08-01T04:07:38;3.67;;;3.37;;
17414;SDS011;8825;48.086;16.426;2023-08-01T04:10:06;3.97;;;3.67;;
17414;SDS011;8825;48.086;16.426;2023-08-01T04:12:34;4.37;;;3.97;;
17414;SDS011;8825;48.086;16.426;2023-08-01T04:15:02;3.80;;;3.50;;
17414;SDS011;8825;48.086;16.426;2023-08-01T04:17:29;3.70;;;3.40;;
17414;SDS011;8825;48.086;16.426;2023-08-01T04:19:57;3.87;;;3.57;;
17414;SDS011;8825;48.086;16.426;2023-08-01T04:22:24;3.93;;;3.47;;
17414;SDS011;8825;48.086;16.426;2023-08-01T04:24:52;3.80;;;3.47;;
17414;SDS011;8825;48.086;16.426;2023-08-01T04:27:20;3.70;;;3.40;;
17414;SDS011;8825;48.086;16.426;2023-08-01T04:29:47;4.97;;;3.40;;
17414;SDS011;8825;48.086;16.426;2023-08-01T04:32:15;3.73;;;3.43;;
17414;SDS011;8825;48.086;16.426;2023-08-01T04:34:42;4.20;;;3.80;;
17414;SDS011;8825;48.086;16.426;2023-08-01T04:37:10;5.00;;;4.03;;
17414;SDS011;8825;48.086;16.426;2023-08-01T04:39:37;3.60;;;3.30;;
17414;SDS011;8825;48.086;16.426;2023-08-01T04:42:05;4.30;;;3.80;;
17414;SDS011;8825;48.086;16.426;2023-08-01T04:44:33;4.07;;;3.70;;
17414;SDS011;8825;48.086;16.426;2023-08-01T04:47:00;3.73;;;3.43;;
17414;SDS011;8825;48.086;16.426;2023-08-01T04:49:28;4.00;;;3.60;;
17414;SDS011;8825;48.086;16.426;2023-08-01T04:51:55;4.47;;;3.83;;
17414;SDS011;8825;48.086;16.426;2023-08-01T04:54:23;4.13;;;3.73;;
17414;SDS011;8825;48.086;16.426;2023-08-01T04:56:51;3.93;;;3.63;;
17414;SDS011;8825;48.086;16.426;2023-08-01T04:59:18;4.03;;;3.70;;
17414;SDS011;8825;48.086;16.426;2023-08-01T05:01:46;3.80;;;3.50;;
17414;SDS011;8825;48.086;16.426;2023-08-01T05:04:13;3.80;;;3.50;;
17414;SDS011;8825;48.086;16.426;2023-08-01T05:06:41;4.10;;;3.50;;
17414;SDS011;8825;48.086;16.426;2023-08-01T05:09:08;4.50;;;3.87;;
17414;SDS011;8825;48.086;16.426;2023-08-01T05:11:35;4.87;;;4.43;;
17414;SDS011;8825;48.086;16.426;2023-08-01T05:14:03;4.30;;;3.90;;
17414;SDS011;8825;48.086;16.426;2023-08-01T05:16:31;4.27;;;3.90;;
17414;SDS011;8825;48.086;16.426;2023-08-01T05:18:59;4.50;;;3.83;;
17414;SDS011;8825;48.086;16.426;2023-08-01T05:21:26;4.50;;;4.10;;
17414;SDS011;8825;48.086;16.426;2023-08-01T05:23:54;4.33;;;3.93;;
17414;SDS011;8825;48.086;16.426;2023-08-01T05:26:21;4.60;;;3.80;;
17414;SDS011;8825;48.086;16.426;2023-08-01T05:28:49;5.10;;;3.60;;
17414;SDS011;8825;48.086;16.426;2023-08-01T05:31:16;5.07;;;4.07;;
17414;SDS011;8825;48.086;16.426;2023-08-01T05:33:44;4.50;;;4.10;;
17414;SDS011;8825;48.086;16.426;2023-08-01T05:36:11;4.13;;;3.70;;
17414;SDS011;8825;48.086;16.426;2023-08-01T05:38:39;4.23;;;3.83;;
17414;SDS011;8825;48.086;16.426;2023-08-01T05:41:06;3.87;;;3.47;;
17414;SDS011;8825;48.086;16.426;2023-08-01T05:43:34;4.10;;;3.57;;
17414;SDS011;8825;48.086;16.426;2023-08-01T05:46:01;5.87;;;3.97;;
17414;SDS011;8825;48.086;16.426;2023-08-01T05:48:29;4.03;;;3.70;;
17414;SDS011;8825;48.086;16.426;2023-08-01T05:50:56;4.00;;;3.63;;
17414;SDS011;8825;48.086;16.426;2023-08-01T05:53:24;4.13;;;3.73;;
17414;SDS011;8825;48.086;16.426;2023-08-01T05:55:52;3.63;;;3.33;;
17414;SDS011;8825;48.086;16.426;2023-08-01T05:58:20;4.07;;;3.67;;
17414;SDS011;8825;48.086;16.426;2023-08-01T06:00:48;4.50;;;4.03;;
17414;SDS011;8825;48.086;16.426;2023-08-01T06:03:15;4.57;;;4.13;;
17414;SDS011;8825;48.086;16.426;2023-08-01T06:05:43;4.83;;;3.90;;
17414;SDS011;8825;48.086;16.426;2023-08-01T06:08:11;3.97;;;3.63;;
17414;SDS011;8825;48.086;16.426;2023-08-01T06:10:39;4.83;;;4.43;;
17414;SDS011;8825;48.086;16.426;2023-08-01T06:13:07;5.10;;;3.93;;
17414;SDS011;8825;48.086;16.426;2023-08-01T06:15:34;3.80;;;3.50;;
17414;SDS011;8825;48.086;16.426;2023-08-01T06:18:02;5.13;;;3.63;;
17414;SDS011;8825;48.086;16.426;2023-08-01T06:20:30;3.83;;;3.53;;
17414;SDS011;8825;48.086;16.426;2023-08-01T06:22:57;4.07;;;3.67;;
17414;SDS011;8825;48.086;16.426;2023-08-01T06:25:25;3.73;;;3.43;;
17414;SDS011;8825;48.086;16.426;2023-08-01T06:27:52;4.10;;;3.80;;
17414;SDS011;8825;48.086;16.426;2023-08-01T06:30:20;3.93;;;3.63;;
17414;SDS011;8825;48.086;16.426;2023-08-01T06:32:47;3.80;;;3.50;;
17414;SDS011;8825;48.086;16.426;2023-08-01T06:35:15;3.93;;;3.53;;
17414;SDS011;8825;48.086;16.426;2023-08-01T06:37:42;4.07;;;3.67;;
17414;SDS011;8825;48.086;16.426;2023-08-01T06:40:10;3.83;;;3.53;;
17414;SDS011;8825;48.086;16.426;2023-08-01T06:42:38;5.93;;;4.17;;
17414;SDS011;8825;48.086;16.426;2023-08-01T06:45:07;3.90;;;3.60;;
17414;SDS011;8825;48.086;16.426;2023-08-01T06:47:34;3.80;;;3.50;;
17414;SDS011;8825;48.086;16.426;2023-08-01T06:50:02;5.77;;;4.20;;
17414;SDS011;8825;48.086;16.426;2023-08-01T06:52:30;3.80;;;3.50;;
17414;SDS011;8825;48.086;16.426;2023-08-01T06:54:58;3.93;;;3.63;;
17414;SDS011;8825;48.086;16.426;2023-08-01T06:57:26;4.00;;;3.70;;
17414;SDS011;8825;48.086;16.426;2023-08-01T06:59:53;3.70;;;3.40;;
17414;SDS011;8825;48.086;16.426;2023-08-01T07:02:21;3.50;;;3.20;;
17414;SDS011;8825;48.086;16.426;2023-08-01T07:04:48;4.00;;;3.70;;
17414;SDS011;8825;48.086;16.426;2023-08-01T07:07:16;3.57;;;3.27;;
17414;SDS011;8825;48.086;16.426;2023-08-01T07:09:43;3.80;;;3.47;;
17414;SDS011;8825;48.086;16.426;2023-08-01T07:12:11;3.70;;;3.40;;
17414;SDS011;8825;48.086;16.426;2023-08-01T07:14:38;3.80;;;3.40;;
17414;SDS011;8825;48.086;16.426;2023-08-01T07:17:06;3.50;;;3.20;;
17414;SDS011;8825;48.086;16.426;2023-08-01T07:19:33;3.97;;;3.67;;
17414;SDS011;8825;48.086;16.426;2023-08-01T07:22:01;3.80;;;3.50;;
17414;SDS011;8825;48.086;16.426;2023-08-01T07:24:28;4.80;;;4.40;;
17414;SDS011;8825;48.086;16.426;2023-08-01T07:26:56;3.60;;;3.30;;
17414;SDS011;8825;48.086;16.426;2023-08-01T07:29:23;4.60;;;4.20;;
17414;SDS011;8825;48.086;16.426;2023-08-01T07:31:51;5.53;;;4.07;;
17414;SDS011;8825;48.086;16.426;2023-08-01T07:34:18;4.43;;;4.03;;
17414;SDS011;8825;48.086;16.426;2023-08-01T07:36:47;4.27;;;3.93;;
17414;SDS011;8825;48.086;16.426;2023-08-01T07:39:16;4.70;;;4.20;;
17414;SDS011;8825;48.086;16.426;2023-08-01T07:41:43;3.40;;;3.20;;
17414;SDS011;8825;48.086;16.426;2023-08-01T07:44:11;4.00;;;3.17;;
17414;SDS011;8825;48.086;16.426;2023-08-01T07:46:38;3.47;;;3.17;;
17414;SDS011;8825;48.086;16.426;2023-08-01T07:49:06;4.73;;;3.67;;
17414;SDS011;8825;48.086;16.426;2023-08-01T07:51:33;3.93;;;3.50;;
17414;SDS011;8825;48.086;16.426;2023-08-01T07:54:02;3.97;;;3.57;;
17414;SDS011;8825;48.086;16.426;2023-08-01T07:56:29;4.33;;;3.93;;
17414;SDS011;8825;48.086;16.426;2023-08-01T07:58:57;4.20;;;3.63;;
17414;SDS011;8825;48.086;16.426;2023-08-01T08:01:24;5.07;;;4.07;;
17414;SDS011;8825;48.086;16.426;2023-08-01T08:03:52;4.73;;;4.03;;
17414;SDS011;8825;48.086;16.426;2023-08-01T08:06:19;4.47;;;4.07;;
17414;SDS011;8825;48.086;16.426;2023-08-01T08:08:47;6.03;;;4.00;;
17414;SDS011;8825;48.086;16.426;2023-08-01T08:11:15;4.20;;;3.80;;
17414;SDS011;8825;48.086;16.426;2023-08-01T08:13:43;4.43;;;4.03;;
17414;SDS011;8825;48.086;16.426;2023-08-01T08:16:10;4.07;;;3.70;;
17414;SDS011;8825;48.086;16.426;2023-08-01T08:18:38;4.73;;;4.23;;
17414;SDS011;8825;48.086;16.426;2023-08-01T08:21:05;4.07;;;3.40;;
17414;SDS011;8825;48.086;16.426;2023-08-01T08:23:33;6.63;;;3.83;;
17414;SDS011;8825;48.086;16.426;2023-08-01T08:26:00;4.23;;;3.80;;
17414;SDS011;8825;48.086;16.426;2023-08-01T08:28:30;3.77;;;3.47;;
17414;SDS011;8825;48.086;16.426;2023-08-01T08:30:59;7.13;;;3.50;;
17414;SDS011;8825;48.086;16.426;2023-08-01T08:33:28;3.80;;;3.47;;
17414;SDS011;8825;48.086;16.426;2023-08-01T08:35:56;4.47;;;4.03;;
17414;SDS011;8825;48.086;16.426;2023-08-01T08:38:23;5.30;;;4.40;;
17414;SDS011;8825;48.086;16.426;2023-08-01T08:43:24;5.13;;;4.07;;
17414;SDS011;8825;48.086;16.426;2023-08-01T08:45:53;4.47;;;3.63;;
17414;SDS011;8825;48.086;16.426;2023-08-01T08:48:23;3.70;;;3.40;;
17414;SDS011;8825;48.086;16.426;2023-08-01T08:50:52;4.27;;;3.87;;
17414;SDS011;8825;48.086;16.426;2023-08-01T08:53:23;3.93;;;3.60;;
17414;SDS011;8825;48.086;16.426;2023-08-01T08:55:52;4.33;;;3.80;;
17414;SDS011;8825;48.086;16.426;2023-08-01T08:58:19;4.80;;;4.07;;
17414;SDS011;8825;48.086;16.426;2023-08-01T09:00:48;4.23;;;3.83;;
17414;SDS011;8825;48.086;16.426;2023-08-01T09:03:16;4.33;;;3.90;;
17414;SDS011;8825;48.086;16.426;2023-08-01T09:05:48;8.80;;;4.20;;
17414;SDS011;8825;48.086;16.426;2023-08-01T09:08:19;4.23;;;3.83;;
17414;SDS011;8825;48.086;16.426;2023-08-01T09:10:50;4.33;;;3.93;;
17414;SDS011;8825;48.086;16.426;2023-08-01T09:13:18;3.40;;;3.17;;
17414;SDS011;8825;48.086;16.426;2023-08-01T09:15:45;4.73;;;3.57;;
17414;SDS011;8825;48.086;16.426;2023-08-01T09:18:14;5.03;;;4.00;;
17414;SDS011;8825;48.086;16.426;2023-08-01T09:20:42;3.93;;;3.63;;
17414;SDS011;8825;48.086;16.426;2023-08-01T09:23:11;5.17;;;3.87;;
17414;SDS011;8825;48.086;16.426;2023-08-01T09:25:39;3.67;;;3.27;;
17414;SDS011;8825;48.086;16.426;2023-08-01T09:28:20;3.70;;;3.40;;
17414;SDS011;8825;48.086;16.426;2023-08-01T09:30:54;4.37;;;3.60;;
17414;SDS011;8825;48.086;16.426;2023-08-01T09:33:21;4.20;;;3.73;;
17414;SDS011;8825;48.086;16.426;2023-08-01T09:35:50;3.60;;;3.30;;
17414;SDS011;8825;48.086;16.426;2023-08-01T09:38:17;5.73;;;3.83;;
17414;SDS011;8825;48.086;16.426;2023-08-01T09:40:45;3.50;;;3.20;;
17414;SDS011;8825;48.086;16.426;2023-08-01T09:43:13;3.93;;;3.63;;
17414;SDS011;8825;48.086;16.426;2023-08-01T09:45:55;3.00;;;2.80;;
17414;SDS011;8825;48.086;16.426;2023-08-01T09:48:29;4.30;;;3.53;;
17414;SDS011;8825;48.086;16.426;2023-08-01T09:51:10;3.93;;;3.50;;
17414;SDS011;8825;48.086;16.426;2023-08-01T09:53:48;3.43;;;3.13;;
17414;SDS011;8825;48.086;16.426;2023-08-01T09:56:20;4.23;;;3.33;;
17414;SDS011;8825;48.086;16.426;2023-08-01T09:58:55;3.67;;;3.20;;
17414;SDS011;8825;48.086;16.426;2023-08-01T10:01:23;3.43;;;3.13;;
17414;SDS011;8825;48.086;16.426;2023-08-01T10:03:52;3.73;;;3.43;;
17414;SDS011;8825;48.086;16.426;2023-08-01T10:06:21;3.53;;;3.20;;
17414;SDS011;8825;48.086;16.426;2023-08-01T10:08:50;4.13;;;3.60;;
17414;SDS011;8825;48.086;16.426;2023-08-01T10:11:19;4.03;;;3.60;;
17414;SDS011;8825;48.086;16.426;2023-08-01T10:13:48;42.17;;;11.53;;
17414;SDS011;8825;48.086;16.426;2023-08-01T10:16:16;41.47;;;13.27;;
17414;SDS011;8825;48.086;16.426;2023-08-01T10:18:44;66.37;;;18.40;;
17414;SDS011;8825;48.086;16.426;2023-08-01T10:21:13;46.77;;;15.87;;
17414;SDS011;8825;48.086;16.426;2023-08-01T10:23:42;24.37;;;8.90;;
17414;SDS011;8825;48.086;16.426;2023-08-01T10:26:11;24.93;;;9.73;;
17414;SDS011;8825;48.086;16.426;2023-08-01T10:28:40;18.67;;;8.00;;
17414;SDS011;8825;48.086;16.426;2023-08-01T10:31:13;12.43;;;5.53;;
17414;SDS011;8825;48.086;16.426;2023-08-01T10:33:42;8.50;;;5.00;;
17414;SDS011;8825;48.086;16.426;2023-08-01T10:36:14;7.10;;;4.20;;
17414;SDS011;8825;48.086;16.426;2023-08-01T10:38:59;5.90;;;4.80;;
17414;SDS011;8825;48.086;16.426;2023-08-01T10:41:32;4.57;;;3.80;;
17414;SDS011;8825;48.086;16.426;2023-08-01T10:44:05;5.43;;;4.37;;
17414;SDS011;8825;48.086;16.426;2023-08-01T10:49:34;4.50;;;4.10;;
17414;SDS011;8825;48.086;16.426;2023-08-01T10:52:25;4.43;;;3.80;;
17414;SDS011;8825;48.086;16.426;2023-08-01T10:55:02;4.00;;;3.67;;
17414;SDS011;8825;48.086;16.426;2023-08-01T10:57:31;6.03;;;3.60;;
17414;SDS011;8825;48.086;16.426;2023-08-01T11:00:00;4.37;;;3.70;;
17414;SDS011;8825;48.086;16.426;2023-08-01T11:02:38;4.33;;;3.70;;
17414;SDS011;8825;48.086;16.426;2023-08-01T11:05:06;4.57;;;4.10;;
17414;SDS011;8825;48.086;16.426;2023-08-01T11:07:34;4.47;;;4.07;;
17414;SDS011;8825;48.086;16.426;2023-08-01T11:10:08;5.53;;;4.17;;
17414;SDS011;8825;48.086;16.426;2023-08-01T11:12:40;4.30;;;3.80;;
17414;SDS011;8825;48.086;16.426;2023-08-01T11:15:13;5.27;;;4.00;;
17414;SDS011;8825;48.086;16.426;2023-08-01T11:17:42;5.27;;;3.70;;
17414;SDS011;8825;48.086;16.426;2023-08-01T11:20:11;6.10;;;4.43;;
17414;SDS011;8825;48.086;16.426;2023-08-01T11:22:54;4.60;;;3.70;;
17414;SDS011;8825;48.086;16.426;2023-08-01T11:25:19;3.87;;;3.50;;
17414;SDS011;8825;48.086;16.426;2023-08-01T11:28:08;4.03;;;3.63;;
17414;SDS011;8825;48.086;16.426;2023-08-01T11:30:37;4.03;;;3.43;;
17414;SDS011;8825;48.086;16.426;2023-08-01T11:33:26;4.10;;;3.70;;
17414;SDS011;8825;48.086;16.426;2023-08-01T11:35:56;4.03;;;3.63;;
17414;SDS011;8825;48.086;16.426;2023-08-01T11:38:28;4.73;;;4.23;;
17414;SDS011;8825;48.086;16.426;2023-08-01T11:40:59;4.87;;;4.37;;
17414;SDS011;8825;48.086;16.426;2023-08-01T11:43:49;3.77;;;3.47;;
17414;SDS011;8825;48.086;16.426;2023-08-01T11:46:07;3.83;;;3.37;;
17414;SDS011;8825;48.086;16.426;2023-08-01T11:48:35;4.83;;;4.20;;
17414;SDS011;8825;48.086;16.426;2023-08-01T11:51:03;3.83;;;3.53;;
17414;SDS011;8825;48.086;16.426;2023-08-01T11:53:31;3.83;;;3.53;;
17414;SDS011;8825;48.086;16.426;2023-08-01T11:56:03;3.73;;;3.43;;
17414;SDS011;8825;48.086;16.426;2023-08-01T11:58:31;4.00;;;3.70;;
17414;SDS011;8825;48.086;16.426;2023-08-01T12:01:06;4.20;;;3.80;;
17414;SDS011;8825;48.086;16.426;2023-08-01T12:03:45;4.23;;;3.67;;
17414;SDS011;8825;48.086;16.426;2023-08-01T12:06:14;3.73;;;3.43;;
17414;SDS011;8825;48.086;16.426;2023-08-01T12:08:43;5.40;;;4.23;;
17414;SDS011;8825;48.086;16.426;2023-08-01T12:11:18;4.00;;;3.50;;
17414;SDS011;8825;48.086;16.426;2023-08-01T12:16:38;4.90;;;3.70;;
17414;SDS011;8825;48.086;16.426;2023-08-01T12:19:07;4.20;;;3.80;;
17414;SDS011;8825;48.086;16.426;2023-08-01T12:21:35;5.00;;;4.13;;
17414;SDS011;8825;48.086;16.426;2023-08-01T12:24:03;4.47;;;4.07;;
17414;SDS011;8825;48.086;16.426;2023-08-01T12:26:30;4.23;;;3.83;;
17414;SDS011;8825;48.086;16.426;2023-08-01T12:28:58;4.47;;;4.07;;
17414;SDS011;8825;48.086;16.426;2023-08-01T12:31:25;4.60;;;4.20;;
17414;SDS011;8825;48.086;16.426;2023-08-01T12:33:53;4.63;;;4.20;;
17414;SDS011;8825;48.086;16.426;2023-08-01T12:36:21;4.27;;;3.87;;
17414;SDS011;8825;48.086;16.426;2023-08-01T12:38:49;5.47;;;4.53;;
17414;SDS011;8825;48.086;16.426;2023-08-01T12:41:16;4.57;;;4.07;;
17414;SDS011;8825;48.086;16.426;2023-08-01T12:43:44;4.30;;;3.90;;
17414;SDS011;8825;48.086;16.426;2023-08-01T12:46:11;4.40;;;4.00;;
17414;SDS011;8825;48.086;16.426;2023-08-01T12:48:39;4.33;;;3.80;;
17414;SDS011;8825;48.086;16.426;2023-08-01T12:51:07;4.50;;;3.97;;
17414;SDS011;8825;48.086;16.426;2023-08-01T12:53:35;4.43;;;4.03;;
17414;SDS011;8825;48.086;16.426;2023-08-01T12:56:03;4.20;;;3.83;;
17414;SDS011;8825;48.086;16.426;2023-08-01T12:58:31;4.93;;;4.43;;
17414;SDS011;8825;48.086;16.426;2023-08-01T13:00:58;4.87;;;4.33;;
17414;SDS011;8825;48.086;16.426;2023-08-01T13:03:27;5.17;;;4.30;;
17414;SDS011;8825;48.086;16.426;2023-08-01T13:05:55;4.10;;;3.70;;
17414;SDS011;8825;48.086;16.426;2023-08-01T13:08:24;4.50;;;4.10;;
17414;SDS011;8825;48.086;16.426;2023-08-01T13:10:51;6.03;;;4.50;;
17414;SDS011;8825;48.086;16.426;2023-08-01T13:13:19;4.43;;;4.03;;
17414;SDS011;8825;48.086;16.426;2023-08-01T13:15:46;4.70;;;4.20;;
17414;SDS011;8825;48.086;16.426;2023-08-01T13:18:14;4.43;;;4.03;;
17414;SDS011;8825;48.086;16.426;2023-08-01T13:20:43;4.13;;;3.83;;
17414;SDS011;8825;48.086;16.426;2023-08-01T13:23:11;4.20;;;3.80;;
17414;SDS011;8825;48.086;16.426;2023-08-01T13:25:38;4.93;;;4.10;;
17414;SDS011;8825;48.086;16.426;2023-08-01T13:28:05;5.40;;;4.30;;
17414;SDS011;8825;48.086;16.426;2023-08-01T13:30:33;7.53;;;4.90;;
17414;SDS011;8825;48.086;16.426;2023-08-01T13:33:00;4.60;;;4.07;;
17414;SDS011;8825;48.086;16.426;2023-08-01T13:35:28;4.37;;;3.90;;
17414;SDS011;8825;48.086;16.426;2023-08-01T13:37:55;4.13;;;3.83;;
17414;SDS011;8825;48.086;16.426;2023-08-01T13:40:24;4.20;;;3.80;;
17414;SDS011;8825;48.086;16.426;2023-08-01T13:42:52;5.03;;;3.90;;
17414;SDS011;8825;48.086;16.426;2023-08-01T13:45:19;5.97;;;3.40;;
17414;SDS011;8825;48.086;16.426;2023-08-01T13:47:47;5.33;;;4.10;;
17414;SDS011;8825;48.086;16.426;2023-08-01T13:50:14;5.20;;;4.70;;
17414;SDS011;8825;48.086;16.426;2023-08-01T13:52:42;4.73;;;3.67;;
17414;SDS011;8825;48.086;16.426;2023-08-01T13:55:10;4.67;;;4.10;;
17414;SDS011;8825;48.086;16.426;2023-08-01T13:57:37;5.33;;;3.93;;
17414;SDS011;8825;48.086;16.426;2023-08-01T14:00:05;5.10;;;4.60;;
17414;SDS011;8825;48.086;16.426;2023-08-01T14:02:34;5.03;;;4.40;;
17414;SDS011;8825;48.086;16.426;2023-08-01T14:05:01;4.77;;;4.37;;
17414;SDS011;8825;48.086;16.426;2023-08-01T14:07:29;4.53;;;4.13;;
17414;SDS011;8825;48.086;16.426;2023-08-01T14:09:56;6.37;;;4.40;;
17414;SDS011;8825;48.086;16.426;2023-08-01T14:12:24;6.80;;;4.43;;
17414;SDS011;8825;48.086;16.426;2023-08-01T14:14:52;4.63;;;4.23;;
17414;SDS011;8825;48.086;16.426;2023-08-01T14:17:19;4.83;;;4.37;;
17414;SDS011;8825;48.086;16.426;2023-08-01T14:19:47;4.40;;;4.00;;
17414;SDS011;8825;48.086;16.426;2023-08-01T14:22:14;4.13;;;3.60;;
17414;SDS011;8825;48.086;16.426;2023-08-01T14:24:42;5.93;;;4.23;;
17414;SDS011;8825;48.086;16.426;2023-08-01T14:27:09;5.00;;;4.40;;
17414;SDS011;8825;48.086;16.426;2023-08-01T14:29:37;4.93;;;4.43;;
17414;SDS011;8825;48.086;16.426;2023-08-01T14:32:05;4.67;;;4.27;;
17414;SDS011;8825;48.086;16.426;2023-08-01T14:34:32;4.63;;;4.23;;
17414;SDS011;8825;48.086;16.426;2023-08-01T14:37:00;4.90;;;3.67;;
17414;SDS011;8825;48.086;16.426;2023-08-01T14:39:28;5.00;;;4.60;;
17414;SDS011;8825;48.086;16.426;2023-08-01T14:41:55;5.63;;;4.57;;
17414;SDS011;8825;48.086;16.426;2023-08-01T14:44:23;5.23;;;4.73;;
17414;SDS011;8825;48.086;16.426;2023-08-01T14:46:51;4.67;;;4.03;;
17414;SDS011;8825;48.086;16.426;2023-08-01T14:49:20;4.97;;;4.37;;
17414;SDS011;8825;48.086;16.426;2023-08-01T14:51:48;6.10;;;4.93;;
17414;SDS011;8825;48.086;16.426;2023-08-01T14:54:15;6.60;;;5.30;;
17414;SDS011;8825;48.086;16.426;2023-08-01T14:56:43;6.20;;;4.87;;
17414;SDS011;8825;48.086;16.426;2023-08-01T14:59:10;5.37;;;4.53;;
17414;SDS011;8825;48.086;16.426;2023-08-01T15:01:38;5.67;;;4.33;;
17414;SDS011;8825;48.086;16.426;2023-08-01T15:04:05;4.67;;;4.27;;
17414;SDS011;8825;48.086;16.426;2023-08-01T15:06:33;5.53;;;4.43;;